sensor_id;sensor_type;location;lat;lon;timestamp;P1;durP1;ratioP1;P2;durP2;ratioP2
9310;SDS011;4694;52.464;13.480;2022-08-01T00:01:35;5.35;;;3.40;;
9310;SDS011;4694;52.464;13.480;2022-08-01T00:04:02;3.85;;;3.45;;
9310;SDS011;4694;52.464;13.480;2022-08-01T00:06:29;7.15;;;3.90;;
9310;SDS011;4694;52.464;13.480;2022-08-01T00:08:56;4.70;;;3.80;;
9310;SDS011;4694;52.464;13.480;2022-08-01T00:11:23;4.75;;;3.45;;
9310;SDS011;4694;52.464;13.480;2022-08-01T00:13:50;6.95;;;3.80;;
9310;SDS011;4694;52.464;13.480;2022-08-01T00:16:17;4.30;;;3.45;;
9310;SDS011;4694;52.464;13.480;2022-08-01T00:18:48;6.78;;;4.50;;
9310;SDS011;4694;52.464;13.480;2022-08-01T00:21:15;3.42;;;3.08;;
9310;SDS011;4694;52.464;13.480;2022-08-01T00:23:42;5.57;;;4.13;;
9310;SDS011;4694;52.464;13.480;2022-08-01T00:26:10;3.83;;;3.30;;
9310;SDS011;4694;52.464;13.480;2022-08-01T00:28:37;3.83;;;3.50;;
9310;SDS011;4694;52.464;13.480;2022-08-01T00:31:04;4.43;;;3.30;;
9310;SDS011;4694;52.464;13.480;2022-08-01T00:33:31;3.92;;;3.53;;
9310;SDS011;4694;52.464;13.480;2022-08-01T00:35:59;6.70;;;3.97;;
9310;SDS011;4694;52.464;13.480;2022-08-01T00:38:26;4.18;;;3.67;;
9310;SDS011;4694;52.464;13.480;2022-08-01T00:40:53;7.18;;;4.50;;
9310;SDS011;4694;52.464;13.480;2022-08-01T00:43:20;5.43;;;4.72;;
9310;SDS011;4694;52.464;13.480;2022-08-01T00:45:47;5.05;;;4.55;;
9310;SDS011;4694;52.464;13.480;2022-08-01T00:48:14;5.68;;;4.00;;
9310;SDS011;4694;52.464;13.480;2022-08-01T00:50:41;7.28;;;4.90;;
9310;SDS011;4694;52.464;13.480;2022-08-01T00:53:10;7.80;;;6.15;;
9310;SDS011;4694;52.464;13.480;2022-08-01T00:55:37;12.55;;;9.52;;
9310;SDS011;4694;52.464;13.480;2022-08-01T00:58:03;13.50;;;10.82;;
9310;SDS011;4694;52.464;13.480;2022-08-01T01:00:31;6.65;;;5.93;;
9310;SDS011;4694;52.464;13.480;2022-08-01T01:02:58;5.50;;;5.00;;
9310;SDS011;4694;52.464;13.480;2022-08-01T01:05:25;7.13;;;5.47;;
9310;SDS011;4694;52.464;13.480;2022-08-01T01:07:53;6.88;;;6.25;;
9310;SDS011;4694;52.464;13.480;2022-08-01T01:10:24;6.25;;;5.70;;
9310;SDS011;4694;52.464;13.480;2022-08-01T01:12:54;6.82;;;6.13;;
9310;SDS011;4694;52.464;13.480;2022-08-01T01:15:22;6.20;;;5.00;;
9310;SDS011;4694;52.464;13.480;2022-08-01T01:17:55;6.63;;;5.18;;
9310;SDS011;4694;52.464;13.480;2022-08-01T01:20:24;6.82;;;4.55;;
9310;SDS011;4694;52.464;13.480;2022-08-01T01:22:57;5.65;;;4.47;;
9310;SDS011;4694;52.464;13.480;2022-08-01T01:25:32;6.43;;;4.47;;
9310;SDS011;4694;52.464;13.480;2022-08-01T01:28:07;5.53;;;4.97;;
9310;SDS011;4694;52.464;13.480;2022-08-01T01:30:36;4.97;;;4.57;;
9310;SDS011;4694;52.464;13.480;2022-08-01T01:33:06;4.83;;;4.43;;
9310;SDS011;4694;52.464;13.480;2022-08-01T01:35:35;6.28;;;4.43;;
9310;SDS011;4694;52.464;13.480;2022-08-01T01:38:04;4.63;;;3.63;;
9310;SDS011;4694;52.464;13.480;2022-08-01T01:40:31;4.72;;;4.22;;
9310;SDS011;4694;52.464;13.480;2022-08-01T01:42:59;5.43;;;4.20;;
9310;SDS011;4694;52.464;13.480;2022-08-01T01:45:27;4.88;;;4.38;;
9310;SDS011;4694;52.464;13.480;2022-08-01T01:47:56;6.85;;;4.25;;
9310;SDS011;4694;52.464;13.480;2022-08-01T01:50:23;5.30;;;4.78;;
9310;SDS011;4694;52.464;13.480;2022-08-01T01:52:51;4.88;;;4.47;;
9310;SDS011;4694;52.464;13.480;2022-08-01T01:55:19;4.05;;;3.75;;
9310;SDS011;4694;52.464;13.480;2022-08-01T01:57:48;5.93;;;4.65;;
9310;SDS011;4694;52.464;13.480;2022-08-01T02:00:15;5.20;;;4.72;;
9310;SDS011;4694;52.464;13.480;2022-08-01T02:02:43;5.55;;;4.68;;
9310;SDS011;4694;52.464;13.480;2022-08-01T02:05:12;5.65;;;5.10;;
9310;SDS011;4694;52.464;13.480;2022-08-01T02:07:40;5.10;;;4.60;;
9310;SDS011;4694;52.464;13.480;2022-08-01T02:10:07;5.35;;;4.25;;
9310;SDS011;4694;52.464;13.480;2022-08-01T02:12:36;5.95;;;5.18;;
9310;SDS011;4694;52.464;13.480;2022-08-01T02:15:04;4.78;;;4.00;;
9310;SDS011;4694;52.464;13.480;2022-08-01T02:17:32;7.35;;;4.65;;
9310;SDS011;4694;52.464;13.480;2022-08-01T02:20:03;6.28;;;4.13;;
9310;SDS011;4694;52.464;13.480;2022-08-01T02:22:33;4.35;;;3.95;;
9310;SDS011;4694;52.464;13.480;2022-08-01T02:25:02;6.28;;;4.68;;
9310;SDS011;4694;52.464;13.480;2022-08-01T02:27:31;5.43;;;4.93;;
9310;SDS011;4694;52.464;13.480;2022-08-01T02:30:01;5.00;;;4.60;;
9310;SDS011;4694;52.464;13.480;2022-08-01T02:32:30;4.75;;;3.90;;
9310;SDS011;4694;52.464;13.480;2022-08-01T02:34:58;5.90;;;5.30;;
9310;SDS011;4694;52.464;13.480;2022-08-01T02:37:27;5.60;;;5.10;;
9310;SDS011;4694;52.464;13.480;2022-08-01T02:39:56;5.35;;;4.85;;
9310;SDS011;4694;52.464;13.480;2022-08-01T02:42:24;6.05;;;4.95;;
9310;SDS011;4694;52.464;13.480;2022-08-01T02:44:53;5.45;;;4.97;;
9310;SDS011;4694;52.464;13.480;2022-08-01T02:47:21;6.50;;;4.97;;
9310;SDS011;4694;52.464;13.480;2022-08-01T02:49:49;5.35;;;4.85;;
9310;SDS011;4694;52.464;13.480;2022-08-01T02:52:17;7.38;;;5.18;;
9310;SDS011;4694;52.464;13.480;2022-08-01T02:54:48;6.47;;;5.00;;
9310;SDS011;4694;52.464;13.480;2022-08-01T02:57:18;5.82;;;5.03;;
9310;SDS011;4694;52.464;13.480;2022-08-01T02:59:47;6.63;;;5.63;;
9310;SDS011;4694;52.464;13.480;2022-08-01T03:02:15;7.05;;;5.05;;
9310;SDS011;4694;52.464;13.480;2022-08-01T03:04:43;6.95;;;5.93;;
9310;SDS011;4694;52.464;13.480;2022-08-01T03:07:11;5.53;;;5.05;;
9310;SDS011;4694;52.464;13.480;2022-08-01T03:09:40;5.35;;;4.85;;
9310;SDS011;4694;52.464;13.480;2022-08-01T03:12:09;5.57;;;5.07;;
9310;SDS011;4694;52.464;13.480;2022-08-01T03:14:39;7.03;;;5.90;;
9310;SDS011;4694;52.464;13.480;2022-08-01T03:17:06;7.40;;;5.72;;
9310;SDS011;4694;52.464;13.480;2022-08-01T03:19:34;6.10;;;5.50;;
9310;SDS011;4694;52.464;13.480;2022-08-01T03:22:02;9.32;;;5.90;;
9310;SDS011;4694;52.464;13.480;2022-08-01T03:24:31;7.57;;;5.82;;
9310;SDS011;4694;52.464;13.480;2022-08-01T03:26:59;5.80;;;5.07;;
9310;SDS011;4694;52.464;13.480;2022-08-01T03:29:27;6.15;;;5.40;;
9310;SDS011;4694;52.464;13.480;2022-08-01T03:31:57;5.82;;;5.18;;
9310;SDS011;4694;52.464;13.480;2022-08-01T03:34:25;5.87;;;5.27;;
9310;SDS011;4694;52.464;13.480;2022-08-01T03:36:53;6.07;;;5.57;;
9310;SDS011;4694;52.464;13.480;2022-08-01T03:39:22;7.72;;;5.43;;
9310;SDS011;4694;52.464;13.480;2022-08-01T03:41:54;7.35;;;5.88;;
9310;SDS011;4694;52.464;13.480;2022-08-01T03:44:22;5.47;;;4.97;;
9310;SDS011;4694;52.464;13.480;2022-08-01T03:46:52;6.83;;;5.40;;
9310;SDS011;4694;52.464;13.480;2022-08-01T03:49:22;6.05;;;5.47;;
9310;SDS011;4694;52.464;13.480;2022-08-01T03:51:50;6.03;;;5.40;;
9310;SDS011;4694;52.464;13.480;2022-08-01T03:54:20;5.88;;;5.20;;
9310;SDS011;4694;52.464;13.480;2022-08-01T03:56:47;7.28;;;4.75;;
9310;SDS011;4694;52.464;13.480;2022-08-01T03:59:15;7.57;;;5.00;;
9310;SDS011;4694;52.464;13.480;2022-08-01T04:01:43;6.38;;;4.97;;
9310;SDS011;4694;52.464;13.480;2022-08-01T04:04:10;6.07;;;5.47;;
9310;SDS011;4694;52.464;13.480;2022-08-01T04:06:39;5.15;;;4.55;;
9310;SDS011;4694;52.464;13.480;2022-08-01T04:11:35;6.13;;;5.53;;
9310;SDS011;4694;52.464;13.480;2022-08-01T04:14:02;9.30;;;5.82;;
9310;SDS011;4694;52.464;13.480;2022-08-01T04:16:29;8.18;;;5.50;;
9310;SDS011;4694;52.464;13.480;2022-08-01T04:18:57;6.43;;;5.35;;
9310;SDS011;4694;52.464;13.480;2022-08-01T04:21:24;10.60;;;6.82;;
9310;SDS011;4694;52.464;13.480;2022-08-01T04:23:55;6.77;;;5.20;;
9310;SDS011;4694;52.464;13.480;2022-08-01T04:26:22;8.60;;;6.45;;
9310;SDS011;4694;52.464;13.480;2022-08-01T04:28:51;9.77;;;6.78;;
9310;SDS011;4694;52.464;13.480;2022-08-01T04:31:19;7.47;;;5.50;;
9310;SDS011;4694;52.464;13.480;2022-08-01T04:33:48;14.13;;;7.45;;
9310;SDS011;4694;52.464;13.480;2022-08-01T04:36:15;12.25;;;7.43;;
9310;SDS011;4694;52.464;13.480;2022-08-01T04:38:45;7.53;;;6.47;;
9310;SDS011;4694;52.464;13.480;2022-08-01T04:41:14;11.80;;;7.40;;
9310;SDS011;4694;52.464;13.480;2022-08-01T04:43:41;15.18;;;7.55;;
9310;SDS011;4694;52.464;13.480;2022-08-01T04:46:08;12.13;;;8.10;;
9310;SDS011;4694;52.464;13.480;2022-08-01T04:48:37;12.52;;;6.55;;
9310;SDS011;4694;52.464;13.480;2022-08-01T04:51:10;9.65;;;6.82;;
9310;SDS011;4694;52.464;13.480;2022-08-01T04:53:38;9.65;;;6.22;;
9310;SDS011;4694;52.464;13.480;2022-08-01T04:56:05;8.05;;;6.00;;
9310;SDS011;4694;52.464;13.480;2022-08-01T04:58:34;7.03;;;5.93;;
9310;SDS011;4694;52.464;13.480;2022-08-01T05:01:01;6.72;;;5.45;;
9310;SDS011;4694;52.464;13.480;2022-08-01T05:03:27;13.38;;;8.35;;
9310;SDS011;4694;52.464;13.480;2022-08-01T05:05:54;9.55;;;7.80;;
9310;SDS011;4694;52.464;13.480;2022-08-01T05:08:21;10.05;;;8.00;;
9310;SDS011;4694;52.464;13.480;2022-08-01T05:10:48;15.05;;;7.75;;
9310;SDS011;4694;52.464;13.480;2022-08-01T05:13:15;9.52;;;7.70;;
9310;SDS011;4694;52.464;13.480;2022-08-01T05:15:44;12.50;;;9.15;;
9310;SDS011;4694;52.464;13.480;2022-08-01T05:18:11;11.48;;;7.95;;
9310;SDS011;4694;52.464;13.480;2022-08-01T05:20:38;8.25;;;7.07;;
9310;SDS011;4694;52.464;13.480;2022-08-01T05:23:05;11.15;;;7.88;;
9310;SDS011;4694;52.464;13.480;2022-08-01T05:25:31;18.13;;;9.32;;
9310;SDS011;4694;52.464;13.480;2022-08-01T05:27:59;10.27;;;8.05;;
9310;SDS011;4694;52.464;13.480;2022-08-01T05:30:26;11.48;;;8.40;;
9310;SDS011;4694;52.464;13.480;2022-08-01T05:32:55;8.95;;;8.05;;
9310;SDS011;4694;52.464;13.480;2022-08-01T05:35:22;11.43;;;8.48;;
9310;SDS011;4694;52.464;13.480;2022-08-01T05:37:49;9.25;;;7.55;;
9310;SDS011;4694;52.464;13.480;2022-08-01T05:40:16;9.68;;;7.88;;
9310;SDS011;4694;52.464;13.480;2022-08-01T05:42:43;9.63;;;7.05;;
9310;SDS011;4694;52.464;13.480;2022-08-01T05:45:10;12.93;;;8.38;;
9310;SDS011;4694;52.464;13.480;2022-08-01T05:47:37;10.77;;;7.47;;
9310;SDS011;4694;52.464;13.480;2022-08-01T05:50:06;9.98;;;7.78;;
9310;SDS011;4694;52.464;13.480;2022-08-01T05:52:33;10.23;;;7.97;;
9310;SDS011;4694;52.464;13.480;2022-08-01T05:55:00;8.63;;;7.15;;
9310;SDS011;4694;52.464;13.480;2022-08-01T05:57:27;8.20;;;6.13;;
9310;SDS011;4694;52.464;13.480;2022-08-01T05:59:54;8.73;;;7.20;;
9310;SDS011;4694;52.464;13.480;2022-08-01T06:02:21;7.88;;;6.80;;
9310;SDS011;4694;52.464;13.480;2022-08-01T06:04:47;7.93;;;5.72;;
9310;SDS011;4694;52.464;13.480;2022-08-01T06:07:16;7.18;;;5.85;;
9310;SDS011;4694;52.464;13.480;2022-08-01T06:09:43;7.82;;;5.85;;
9310;SDS011;4694;52.464;13.480;2022-08-01T06:12:10;8.10;;;5.25;;
9310;SDS011;4694;52.464;13.480;2022-08-01T06:14:37;7.00;;;6.30;;
9310;SDS011;4694;52.464;13.480;2022-08-01T06:17:04;7.53;;;5.40;;
9310;SDS011;4694;52.464;13.480;2022-08-01T06:19:30;8.48;;;6.22;;
9310;SDS011;4694;52.464;13.480;2022-08-01T06:21:57;8.07;;;5.45;;
9310;SDS011;4694;52.464;13.480;2022-08-01T06:24:26;5.10;;;4.60;;
9310;SDS011;4694;52.464;13.480;2022-08-01T06:26:53;4.47;;;4.05;;
9310;SDS011;4694;52.464;13.480;2022-08-01T06:29:20;7.30;;;5.53;;
9310;SDS011;4694;52.464;13.480;2022-08-01T06:31:47;5.93;;;3.97;;
9310;SDS011;4694;52.464;13.480;2022-08-01T06:34:14;4.85;;;4.28;;
9310;SDS011;4694;52.464;13.480;2022-08-01T06:36:41;6.93;;;4.47;;
9310;SDS011;4694;52.464;13.480;2022-08-01T06:39:08;5.53;;;5.00;;
9310;SDS011;4694;52.464;13.480;2022-08-01T06:41:36;7.05;;;4.93;;
9310;SDS011;4694;52.464;13.480;2022-08-01T06:44:03;7.63;;;5.22;;
9310;SDS011;4694;52.464;13.480;2022-08-01T06:46:30;7.38;;;5.65;;
9310;SDS011;4694;52.464;13.480;2022-08-01T06:48:57;9.38;;;5.00;;
9310;SDS011;4694;52.464;13.480;2022-08-01T06:51:24;8.02;;;4.97;;
9310;SDS011;4694;52.464;13.480;2022-08-01T06:53:51;6.22;;;4.88;;
9310;SDS011;4694;52.464;13.480;2022-08-01T06:56:19;7.70;;;5.10;;
9310;SDS011;4694;52.464;13.480;2022-08-01T06:58:47;7.35;;;5.05;;
9310;SDS011;4694;52.464;13.480;2022-08-01T07:01:14;7.95;;;4.90;;
9310;SDS011;4694;52.464;13.480;2022-08-01T07:03:41;6.03;;;5.00;;
9310;SDS011;4694;52.464;13.480;2022-08-01T07:06:07;7.57;;;4.95;;
9310;SDS011;4694;52.464;13.480;2022-08-01T07:08:34;5.32;;;4.05;;
9310;SDS011;4694;52.464;13.480;2022-08-01T07:11:01;5.88;;;4.13;;
9310;SDS011;4694;52.464;13.480;2022-08-01T07:13:28;4.88;;;4.38;;
9310;SDS011;4694;52.464;13.480;2022-08-01T07:15:57;5.35;;;4.70;;
9310;SDS011;4694;52.464;13.480;2022-08-01T07:18:23;5.15;;;4.13;;
9310;SDS011;4694;52.464;13.480;2022-08-01T07:20:50;3.80;;;3.50;;
9310;SDS011;4694;52.464;13.480;2022-08-01T07:23:17;5.38;;;4.88;;
9310;SDS011;4694;52.464;13.480;2022-08-01T07:25:43;6.00;;;3.92;;
9310;SDS011;4694;52.464;13.480;2022-08-01T07:28:10;4.63;;;3.55;;
9310;SDS011;4694;52.464;13.480;2022-08-01T07:30:37;7.80;;;4.47;;
9310;SDS011;4694;52.464;13.480;2022-08-01T07:33:08;4.00;;;2.63;;
9310;SDS011;4694;52.464;13.480;2022-08-01T07:35:34;4.00;;;2.95;;
9310;SDS011;4694;52.464;13.480;2022-08-01T07:38:03;3.13;;;2.50;;
9310;SDS011;4694;52.464;13.480;2022-08-01T07:40:29;5.55;;;3.35;;
9310;SDS011;4694;52.464;13.480;2022-08-01T07:42:56;4.72;;;3.08;;
9310;SDS011;4694;52.464;13.480;2022-08-01T07:45:23;3.35;;;3.05;;
9310;SDS011;4694;52.464;13.480;2022-08-01T07:47:51;3.92;;;3.45;;
9310;SDS011;4694;52.464;13.480;2022-08-01T07:50:20;2.78;;;2.58;;
9310;SDS011;4694;52.464;13.480;2022-08-01T07:52:46;2.92;;;2.72;;
9310;SDS011;4694;52.464;13.480;2022-08-01T07:55:13;4.78;;;3.22;;
9310;SDS011;4694;52.464;13.480;2022-08-01T07:57:39;5.00;;;2.70;;
9310;SDS011;4694;52.464;13.480;2022-08-01T08:00:06;7.65;;;3.20;;
9310;SDS011;4694;52.464;13.480;2022-08-01T08:02:34;3.88;;;2.88;;
9310;SDS011;4694;52.464;13.480;2022-08-01T08:05:01;3.50;;;2.22;;
9310;SDS011;4694;52.464;13.480;2022-08-01T08:07:30;3.22;;;2.15;;
9310;SDS011;4694;52.464;13.480;2022-08-01T08:09:56;2.97;;;2.22;;
9310;SDS011;4694;52.464;13.480;2022-08-01T08:12:23;2.15;;;1.95;;
9310;SDS011;4694;52.464;13.480;2022-08-01T08:14:50;4.03;;;3.22;;
9310;SDS011;4694;52.464;13.480;2022-08-01T08:17:16;2.42;;;2.22;;
9310;SDS011;4694;52.464;13.480;2022-08-01T08:19:43;2.30;;;2.10;;
9310;SDS011;4694;52.464;13.480;2022-08-01T08:22:10;4.45;;;2.88;;
9310;SDS011;4694;52.464;13.480;2022-08-01T08:24:38;3.97;;;2.60;;
9310;SDS011;4694;52.464;13.480;2022-08-01T08:27:04;2.47;;;2.28;;
9310;SDS011;4694;52.464;13.480;2022-08-01T08:29:32;5.13;;;2.85;;
9310;SDS011;4694;52.464;13.480;2022-08-01T08:31:59;4.05;;;2.88;;
9310;SDS011;4694;52.464;13.480;2022-08-01T08:34:27;4.18;;;3.20;;
9310;SDS011;4694;52.464;13.480;2022-08-01T08:36:54;5.40;;;3.42;;
9310;SDS011;4694;52.464;13.480;2022-08-01T08:39:22;5.95;;;3.90;;
9310;SDS011;4694;52.464;13.480;2022-08-01T08:41:50;4.30;;;3.42;;
9310;SDS011;4694;52.464;13.480;2022-08-01T08:44:17;3.70;;;3.25;;
9310;SDS011;4694;52.464;13.480;2022-08-01T08:46:46;5.78;;;4.13;;
9310;SDS011;4694;52.464;13.480;2022-08-01T08:49:16;5.95;;;3.80;;
9310;SDS011;4694;52.464;13.480;2022-08-01T08:51:46;5.15;;;4.03;;
9310;SDS011;4694;52.464;13.480;2022-08-01T08:54:14;4.70;;;3.88;;
9310;SDS011;4694;52.464;13.480;2022-08-01T08:56:43;5.72;;;3.33;;
9310;SDS011;4694;52.464;13.480;2022-08-01T08:59:12;3.72;;;3.15;;
9310;SDS011;4694;52.464;13.480;2022-08-01T09:01:40;4.25;;;3.17;;
9310;SDS011;4694;52.464;13.480;2022-08-01T09:04:07;4.47;;;3.15;;
9310;SDS011;4694;52.464;13.480;2022-08-01T09:06:33;4.10;;;3.13;;
9310;SDS011;4694;52.464;13.480;2022-08-01T09:09:00;2.63;;;2.33;;
9310;SDS011;4694;52.464;13.480;2022-08-01T09:11:27;2.83;;;2.58;;
9310;SDS011;4694;52.464;13.480;2022-08-01T09:14:03;2.38;;;1.90;;
9310;SDS011;4694;52.464;13.480;2022-08-01T09:16:33;2.97;;;2.55;;
9310;SDS011;4694;52.464;13.480;2022-08-01T09:19:08;4.43;;;2.10;;
9310;SDS011;4694;52.464;13.480;2022-08-01T09:21:37;1.67;;;1.58;;
9310;SDS011;4694;52.464;13.480;2022-08-01T09:24:15;2.08;;;1.50;;
9310;SDS011;4694;52.464;13.480;2022-08-01T09:26:43;2.72;;;1.60;;
9310;SDS011;4694;52.464;13.480;2022-08-01T09:29:16;1.83;;;1.15;;
9310;SDS011;4694;52.464;13.480;2022-08-01T09:31:46;1.98;;;0.88;;
9310;SDS011;4694;52.464;13.480;2022-08-01T09:34:14;1.60;;;0.80;;
9310;SDS011;4694;52.464;13.480;2022-08-01T09:36:49;1.05;;;0.70;;
9310;SDS011;4694;52.464;13.480;2022-08-01T09:39:17;3.03;;;1.17;;
9310;SDS011;4694;52.464;13.480;2022-08-01T09:41:45;2.70;;;1.40;;
9310;SDS011;4694;52.464;13.480;2022-08-01T09:44:13;2.17;;;0.93;;
9310;SDS011;4694;52.464;13.480;2022-08-01T09:46:53;1.65;;;0.95;;
9310;SDS011;4694;52.464;13.480;2022-08-01T09:49:27;1.30;;;1.10;;
9310;SDS011;4694;52.464;13.480;2022-08-01T09:51:55;1.70;;;0.80;;
9310;SDS011;4694;52.464;13.480;2022-08-01T09:54:29;2.28;;;1.20;;
9310;SDS011;4694;52.464;13.480;2022-08-01T09:57:07;1.58;;;1.17;;
9310;SDS011;4694;52.464;13.480;2022-08-01T09:59:35;2.75;;;1.13;;
9310;SDS011;4694;52.464;13.480;2022-08-01T10:02:06;1.50;;;1.10;;
9310;SDS011;4694;52.464;13.480;2022-08-01T10:04:34;1.63;;;1.30;;
9310;SDS011;4694;52.464;13.480;2022-08-01T10:07:04;2.45;;;1.20;;
9310;SDS011;4694;52.464;13.480;2022-08-01T10:09:33;3.05;;;1.60;;
9310;SDS011;4694;52.464;13.480;2022-08-01T10:12:01;2.67;;;1.13;;
9310;SDS011;4694;52.464;13.480;2022-08-01T10:14:28;1.38;;;1.27;;
9310;SDS011;4694;52.464;13.480;2022-08-01T10:16:56;1.95;;;1.27;;
9310;SDS011;4694;52.464;13.480;2022-08-01T10:19:26;4.10;;;1.30;;
9310;SDS011;4694;52.464;13.480;2022-08-01T10:21:55;1.63;;;1.52;;
9310;SDS011;4694;52.464;13.480;2022-08-01T10:24:23;1.52;;;1.25;;
9310;SDS011;4694;52.464;13.480;2022-08-01T10:26:52;3.92;;;1.52;;
9310;SDS011;4694;52.464;13.480;2022-08-01T10:29:23;1.67;;;1.35;;
9310;SDS011;4694;52.464;13.480;2022-08-01T10:31:52;2.28;;;1.33;;
9310;SDS011;4694;52.464;13.480;2022-08-01T10:34:19;1.15;;;0.98;;
9310;SDS011;4694;52.464;13.480;2022-08-01T10:36:47;1.42;;;1.33;;
9310;SDS011;4694;52.464;13.480;2022-08-01T10:39:15;1.42;;;1.00;;
9310;SDS011;4694;52.464;13.480;2022-08-01T10:41:44;2.35;;;0.90;;
9310;SDS011;4694;52.464;13.480;2022-08-01T10:44:12;3.90;;;1.20;;
9310;SDS011;4694;52.464;13.480;2022-08-01T10:46:39;1.58;;;0.85;;
9310;SDS011;4694;52.464;13.480;2022-08-01T10:49:13;2.00;;;0.93;;
9310;SDS011;4694;52.464;13.480;2022-08-01T10:51:40;2.17;;;1.00;;
9310;SDS011;4694;52.464;13.480;2022-08-01T10:54:10;2.55;;;1.33;;
9310;SDS011;4694;52.464;13.480;2022-08-01T10:56:40;3.55;;;1.10;;
9310;SDS011;4694;52.464;13.480;2022-08-01T10:59:09;2.80;;;2.03;;
9310;SDS011;4694;52.464;13.480;2022-08-01T11:01:36;1.17;;;1.00;;
9310;SDS011;4694;52.464;13.480;2022-08-01T11:04:05;1.20;;;1.10;;
9310;SDS011;4694;52.464;13.480;2022-08-01T11:06:36;1.30;;;1.20;;
9310;SDS011;4694;52.464;13.480;2022-08-01T11:09:15;1.33;;;1.20;;
9310;SDS011;4694;52.464;13.480;2022-08-01T11:11:56;1.95;;;0.93;;
9310;SDS011;4694;52.464;13.480;2022-08-01T11:14:23;1.45;;;1.30;;
9310;SDS011;4694;52.464;13.480;2022-08-01T11:16:51;1.40;;;1.27;;
9310;SDS011;4694;52.464;13.480;2022-08-01T11:19:18;2.28;;;0.90;;
9310;SDS011;4694;52.464;13.480;2022-08-01T11:21:58;0.80;;;0.80;;
9310;SDS011;4694;52.464;13.480;2022-08-01T11:27:17;1.05;;;0.60;;
9310;SDS011;4694;52.464;13.480;2022-08-01T11:29:53;0.60;;;0.60;;
9310;SDS011;4694;52.464;13.480;2022-08-01T11:32:46;0.98;;;0.80;;
9310;SDS011;4694;52.464;13.480;2022-08-01T11:35:14;1.15;;;0.60;;
9310;SDS011;4694;52.464;13.480;2022-08-01T11:37:41;2.10;;;1.02;;
9310;SDS011;4694;52.464;13.480;2022-08-01T11:40:14;7.30;;;0.77;;
9310;SDS011;4694;52.464;13.480;2022-08-01T11:42:42;0.90;;;0.88;;
9310;SDS011;4694;52.464;13.480;2022-08-01T11:45:09;3.20;;;0.90;;
9310;SDS011;4694;52.464;13.480;2022-08-01T11:47:47;2.58;;;0.77;;
9310;SDS011;4694;52.464;13.480;2022-08-01T11:50:30;1.10;;;0.88;;
9310;SDS011;4694;52.464;13.480;2022-08-01T11:52:57;1.23;;;0.73;;
9310;SDS011;4694;52.464;13.480;2022-08-01T11:55:25;2.75;;;0.80;;
9310;SDS011;4694;52.464;13.480;2022-08-01T11:57:58;1.50;;;0.95;;
9310;SDS011;4694;52.464;13.480;2022-08-01T12:00:25;2.08;;;1.10;;
9310;SDS011;4694;52.464;13.480;2022-08-01T12:02:57;0.73;;;0.73;;
9310;SDS011;4694;52.464;13.480;2022-08-01T12:05:25;1.75;;;1.02;;
9310;SDS011;4694;52.464;13.480;2022-08-01T12:07:53;1.02;;;0.88;;
9310;SDS011;4694;52.464;13.480;2022-08-01T12:10:21;2.72;;;0.85;;
9310;SDS011;4694;52.464;13.480;2022-08-01T12:12:49;3.70;;;0.98;;
9310;SDS011;4694;52.464;13.480;2022-08-01T12:15:17;1.35;;;0.50;;
9310;SDS011;4694;52.464;13.480;2022-08-01T12:17:45;1.20;;;0.70;;
9310;SDS011;4694;52.464;13.480;2022-08-01T12:20:15;3.03;;;0.70;;
9310;SDS011;4694;52.464;13.480;2022-08-01T12:22:42;1.60;;;0.80;;
9310;SDS011;4694;52.464;13.480;2022-08-01T12:25:10;0.98;;;0.40;;
9310;SDS011;4694;52.464;13.480;2022-08-01T12:27:38;1.77;;;0.60;;
9310;SDS011;4694;52.464;13.480;2022-08-01T12:30:05;1.42;;;0.63;;
9310;SDS011;4694;52.464;13.480;2022-08-01T12:32:33;1.33;;;0.63;;
9310;SDS011;4694;52.464;13.480;2022-08-01T12:35:02;0.80;;;0.52;;
9310;SDS011;4694;52.464;13.480;2022-08-01T12:37:31;0.68;;;0.68;;
9310;SDS011;4694;52.464;13.480;2022-08-01T12:39:58;1.52;;;0.50;;
9310;SDS011;4694;52.464;13.480;2022-08-01T12:42:25;2.53;;;0.50;;
9310;SDS011;4694;52.464;13.480;2022-08-01T12:44:53;0.80;;;0.73;;
9310;SDS011;4694;52.464;13.480;2022-08-01T12:47:21;0.68;;;0.50;;
9310;SDS011;4694;52.464;13.480;2022-08-01T12:49:48;1.38;;;0.45;;
9310;SDS011;4694;52.464;13.480;2022-08-01T12:52:15;1.30;;;0.40;;
9310;SDS011;4694;52.464;13.480;2022-08-01T12:55:04;0.85;;;0.60;;
9310;SDS011;4694;52.464;13.480;2022-08-01T12:57:33;0.70;;;0.50;;
9310;SDS011;4694;52.464;13.480;2022-08-01T13:00:07;1.65;;;0.43;;
9310;SDS011;4694;52.464;13.480;2022-08-01T13:02:34;1.23;;;0.77;;
9310;SDS011;4694;52.464;13.480;2022-08-01T13:05:02;2.33;;;0.50;;
9310;SDS011;4694;52.464;13.480;2022-08-01T13:07:39;3.13;;;0.60;;
9310;SDS011;4694;52.464;13.480;2022-08-01T13:10:08;1.15;;;0.52;;
9310;SDS011;4694;52.464;13.480;2022-08-01T13:12:35;1.30;;;0.57;;
9310;SDS011;4694;52.464;13.480;2022-08-01T13:15:21;0.90;;;0.90;;
9310;SDS011;4694;52.464;13.480;2022-08-01T13:17:49;0.47;;;0.40;;
9310;SDS011;4694;52.464;13.480;2022-08-01T13:20:23;2.47;;;0.60;;
9310;SDS011;4694;52.464;13.480;2022-08-01T13:22:50;0.93;;;0.70;;
9310;SDS011;4694;52.464;13.480;2022-08-01T13:25:19;1.30;;;0.70;;
9310;SDS011;4694;52.464;13.480;2022-08-01T13:27:46;0.43;;;0.40;;
9310;SDS011;4694;52.464;13.480;2022-08-01T13:30:13;1.55;;;0.57;;
9310;SDS011;4694;52.464;13.480;2022-08-01T13:32:41;0.63;;;0.50;;
9310;SDS011;4694;52.464;13.480;2022-08-01T13:35:09;2.55;;;0.80;;
9310;SDS011;4694;52.464;13.480;2022-08-01T13:37:37;1.10;;;0.77;;
9310;SDS011;4694;52.464;13.480;2022-08-01T13:40:05;1.25;;;0.70;;
9310;SDS011;4694;52.464;13.480;2022-08-01T13:42:33;1.15;;;0.85;;
9310;SDS011;4694;52.464;13.480;2022-08-01T13:45:00;1.33;;;0.80;;
9310;SDS011;4694;52.464;13.480;2022-08-01T13:47:28;1.23;;;1.10;;
9310;SDS011;4694;52.464;13.480;2022-08-01T13:49:55;2.25;;;0.95;;
9310;SDS011;4694;52.464;13.480;2022-08-01T13:52:25;2.63;;;0.55;;
9310;SDS011;4694;52.464;13.480;2022-08-01T13:54:52;1.08;;;0.98;;
9310;SDS011;4694;52.464;13.480;2022-08-01T13:57:19;1.33;;;0.60;;
9310;SDS011;4694;52.464;13.480;2022-08-01T13:59:48;0.60;;;0.50;;
9310;SDS011;4694;52.464;13.480;2022-08-01T14:02:16;1.45;;;1.15;;
9310;SDS011;4694;52.464;13.480;2022-08-01T14:04:43;1.00;;;0.50;;
9310;SDS011;4694;52.464;13.480;2022-08-01T14:07:10;1.63;;;0.73;;
9310;SDS011;4694;52.464;13.480;2022-08-01T14:09:37;1.95;;;0.50;;
9310;SDS011;4694;52.464;13.480;2022-08-01T14:12:04;0.90;;;0.60;;
9310;SDS011;4694;52.464;13.480;2022-08-01T14:14:32;2.08;;;0.82;;
9310;SDS011;4694;52.464;13.480;2022-08-01T14:17:00;1.27;;;0.80;;
9310;SDS011;4694;52.464;13.480;2022-08-01T14:19:28;3.70;;;0.70;;
9310;SDS011;4694;52.464;13.480;2022-08-01T14:21:55;2.15;;;0.55;;
9310;SDS011;4694;52.464;13.480;2022-08-01T14:24:22;2.28;;;0.57;;
9310;SDS011;4694;52.464;13.480;2022-08-01T14:26:51;1.77;;;1.48;;
9310;SDS011;4694;52.464;13.480;2022-08-01T14:29:18;4.05;;;1.02;;
9310;SDS011;4694;52.464;13.480;2022-08-01T14:31:45;2.47;;;0.73;;
9310;SDS011;4694;52.464;13.480;2022-08-01T14:34:13;1.95;;;0.50;;
9310;SDS011;4694;52.464;13.480;2022-08-01T14:36:40;2.78;;;0.55;;
9310;SDS011;4694;52.464;13.480;2022-08-01T14:39:07;0.60;;;0.40;;
9310;SDS011;4694;52.464;13.480;2022-08-01T14:41:35;3.05;;;0.47;;
9310;SDS011;4694;52.464;13.480;2022-08-01T14:44:02;0.20;;;0.20;;
9310;SDS011;4694;52.464;13.480;2022-08-01T14:46:29;0.50;;;0.30;;
9310;SDS011;4694;52.464;13.480;2022-08-01T14:48:56;0.75;;;0.40;;
9310;SDS011;4694;52.464;13.480;2022-08-01T14:51:24;0.22;;;0.22;;
9310;SDS011;4694;52.464;13.480;2022-08-01T14:53:52;0.45;;;0.20;;
9310;SDS011;4694;52.464;13.480;2022-08-01T14:56:19;1.95;;;0.20;;
9310;SDS011;4694;52.464;13.480;2022-08-01T14:58:46;0.30;;;0.30;;
9310;SDS011;4694;52.464;13.480;2022-08-01T15:01:13;0.32;;;0.32;;
9310;SDS011;4694;52.464;13.480;2022-08-01T15:03:41;0.68;;;0.30;;
9310;SDS011;4694;52.464;13.480;2022-08-01T15:06:08;0.32;;;0.30;;
9310;SDS011;4694;52.464;13.480;2022-08-01T15:08:37;1.13;;;0.30;;
9310;SDS011;4694;52.464;13.480;2022-08-01T15:11:04;0.85;;;0.30;;
9310;SDS011;4694;52.464;13.480;2022-08-01T15:13:33;0.40;;;0.40;;